Time;durP1;ratioP1;P1;durP2;ratioP2;P2;SDS_P1;SDS_P2;PMS_P1;PMS_P2;Temp;Humidity;BMP_temperature;BMP_pressure;BME280_temperature;BME280_humidity;BME280_pressure;Samples;Min_cycle;Max_cycle;Signal;HPM_P1;HPM_P2
2022/11/04 00:01:29;;;;;;;;;2.00;2.00;;;;;11.79;100.00;99634.56;6294572;22;45362;-86
2022/11/04 00:03:56;;;;;;;;;1.33;1.33;;;;;11.75;100.00;99618.63;6292999;22;47091;-86
2022/11/04 00:06:22;;;;;;;;;2.67;1.00;;;;;11.77;100.00;99625.69;6292257;22;45239;-86
2022/11/04 00:08:49;;;;;;;;;2.67;2.67;;;;;11.72;100.00;99613.34;6319519;22;45364;-88
2022/11/04 00:14:04;;;;;;;;;2.00;2.00;;;;;11.72;100.00;99619.53;6319780;22;45299;-87
2022/11/04 00:33:53;;;;;;;;;1.00;1.00;;;;;11.61;100.00;99600.09;6353063;22;45320;-86
2022/11/04 00:36:19;;;;;;;;;7.00;3.33;;;;;11.64;100.00;99600.09;6323064;22;47160;-87
2022/11/04 00:38:48;;;;;;;;;3.67;3.33;;;;;11.63;100.00;99602.75;6299023;22;45394;-86
2022/11/04 00:41:25;;;;;;;;;2.00;2.00;;;;;11.65;100.00;99599.16;6324631;22;44805;-87
2022/11/04 00:43:57;;;;;;;;;3.00;3.00;;;;;11.37;100.00;99553.25;6323769;22;45340;-87
2022/11/04 00:46:23;;;;;;;;;4.00;3.00;;;;;11.67;100.00;99609.81;6324216;22;46904;-87
2022/11/04 00:48:48;;;;;;;;;1.00;1.00;;;;;11.69;100.00;99603.56;6323775;22;45436;-87
2022/11/04 00:51:18;;;;;;;;;2.67;2.00;;;;;11.72;100.00;99598.25;6322833;22;45416;-87
2022/11/04 00:53:44;;;;;;;;;1.00;1.00;;;;;11.72;100.00;99584.91;6351709;22;45299;-87
2022/11/04 00:59:33;;;;;;;;;3.67;1.33;;;;;11.75;100.00;99592.88;6351668;22;45289;-86
2022/11/04 01:01:58;;;;;;;;;2.00;2.00;;;;;11.75;100.00;99581.34;6323440;22;45278;-86
2022/11/04 01:04:24;;;;;;;;;3.67;0.67;;;;;11.78;100.00;99584.88;6325098;22;44726;-86
2022/11/04 01:06:49;;;;;;;;;2.00;2.00;;;;;11.81;100.00;99576.84;6351713;22;44868;-86
2022/11/04 01:09:15;;;;;;;;;2.00;2.00;;;;;11.81;100.00;99574.19;6350542;22;44694;-86
2022/11/04 01:11:40;;;;;;;;;1.00;1.00;;;;;11.80;100.00;99561.75;6322532;22;45222;-85
2022/11/04 01:14:06;;;;;;;;;2.67;2.33;;;;;11.84;100.00;99564.41;6323646;22;45379;-87
2022/11/04 01:16:32;;;;;;;;;1.67;1.67;;;;;11.88;100.00;99567.00;6322296;22;46623;-87
2022/11/04 01:18:58;;;;;;;;;3.33;2.00;;;;;11.87;100.00;99559.03;6322602;22;45736;-86
2022/11/04 01:21:23;;;;;;;;;3.00;3.00;;;;;11.84;100.00;99556.41;6349617;22;45381;-86
2022/11/04 01:23:49;;;;;;;;;1.33;1.00;;;;;11.84;100.00;99569.72;6322867;22;44812;-86
2022/11/04 01:26:18;;;;;;;;;3.00;1.00;;;;;11.79;100.00;99570.63;6323104;22;47533;-86
2022/11/04 01:28:44;;;;;;;;;2.00;2.00;;;;;11.75;100.00;99574.22;6321659;22;45354;-86
2022/11/04 01:31:20;;;;;;;;;1.67;1.00;;;;;11.69;100.00;99560.09;6323874;22;45218;-86
2022/11/04 01:33:48;;;;;;;;;2.67;1.00;;;;;11.70;100.00;99560.09;6351082;22;45638;-86
2022/11/04 01:36:14;;;;;;;;;4.00;2.00;;;;;11.64;100.00;99562.81;6351140;22;45323;-86
2022/11/04 01:38:40;;;;;;;;;1.00;1.00;;;;;11.67;100.00;99562.75;6296996;22;45298;-86
2022/11/04 01:41:07;;;;;;;;;1.00;1.00;;;;;11.64;100.00;99564.59;6321947;22;45404;-86
2022/11/04 01:43:51;;;;;;;;;2.67;1.00;;;;;11.69;100.00;99562.75;6322440;22;45575;-87
2022/11/04 01:47:01;;;;;;;;;3.00;1.00;;;;;11.70;100.00;99572.53;6320561;22;46993;-87
2022/11/04 01:49:36;;;;;;;;;3.33;1.00;;;;;11.71;100.00;99577.81;6316756;22;45359;-87
2022/11/04 01:52:11;;;;;;;;;3.00;1.00;;;;;11.67;100.00;99554.78;6351096;22;45287;-87
2022/11/04 01:54:40;;;;;;;;;2.00;2.00;;;;;11.69;100.00;99552.97;6296601;22;45495;-86
2022/11/04 01:57:12;;;;;;;;;3.00;1.00;;;;;11.65;100.00;99540.59;6324531;22;46922;-86
2022/11/04 01:59:39;;;;;;;;;2.00;1.00;;;;;11.64;100.00;99530.84;6350379;22;45348;-85
2022/11/04 02:02:06;;;;;;;;;1.67;1.67;;;;;11.62;100.00;99537.97;6348989;22;44776;-86
2022/11/04 02:04:31;;;;;;;;;1.67;1.67;;;;;11.61;100.00;99541.50;6325141;22;45711;-86
2022/11/04 02:07:05;;;;;;;;;1.67;1.67;;;;;11.61;100.00;99552.16;6323513;22;46547;-86
2022/11/04 02:09:33;;;;;;;;;1.00;1.00;;;;;11.62;100.00;99556.59;6351780;22;45303;-87
2022/11/04 02:14:46;;;;;;;;;2.00;2.00;;;;;11.57;100.00;99530.03;6348787;22;45262;-87
2022/11/04 02:17:18;;;;;;;;;2.33;2.33;;;;;11.58;100.00;99530.91;6348253;22;45163;-87
2022/11/04 02:20:17;;;;;;;;;0.67;0.67;;;;;11.57;100.00;99540.69;6320849;22;45297;-85
2022/11/04 02:23:11;;;;;;;;;0.67;0.00;;;;;11.56;100.00;99536.25;6322945;22;45309;-86
2022/11/04 02:26:02;;;;;;;;;1.67;1.67;;;;;11.53;100.00;99544.28;6351269;22;45498;-86
2022/11/04 02:29:11;;;;;;;;;3.00;1.00;;;;;11.53;100.00;99540.69;6323979;22;46960;-86
2022/11/04 02:31:49;;;;;;;;;1.00;1.00;;;;;11.55;100.00;99533.59;6323802;22;45312;-86
2022/11/04 02:34:24;;;;;;;;;0.00;0.00;;;;;11.53;100.00;99544.28;6349913;22;45398;-86
2022/11/04 02:36:59;;;;;;;;;1.00;1.00;;;;;11.53;100.00;99538.94;6325446;22;45431;-86
2022/11/04 02:39:52;;;;;;;;;2.33;0.00;;;;;11.55;100.00;99539.81;6350742;22;47189;-86
2022/11/04 02:42:30;;;;;;;;;0.00;0.00;;;;;11.54;100.00;99540.69;6349999;22;45285;-86
2022/11/04 02:45:23;;;;;;;;;3.00;2.67;;;;;11.54;100.00;99534.50;6323288;22;45313;-87
2022/11/04 02:48:18;;;;;;;;;0.33;0.33;;;;;11.52;100.00;99528.31;6352226;22;45451;-86
2022/11/04 02:50:53;;;;;;;;;0.33;0.33;;;;;11.49;100.00;99529.22;6323935;22;46881;-86
2022/11/04 02:53:37;;;;;;;;;1.33;1.33;;;;;11.55;100.00;99525.59;6351990;22;44841;-86
2022/11/04 02:56:06;;;;;;;;;1.00;1.00;;;;;11.55;100.00;99522.94;6350040;22;45376;-86
2022/11/04 02:58:44;;;;;;;;;1.00;1.00;;;;;11.59;100.00;99519.34;6324252;22;45327;-86
2022/11/04 03:01:15;;;;;;;;;0.00;0.00;;;;;11.58;100.00;99520.25;6322583;22;45388;-87
2022/11/04 03:03:47;;;;;;;;;1.00;1.00;;;;;11.59;100.00;99506.03;6349287;22;45502;-86
2022/11/04 03:06:21;;;;;;;;;0.33;0.33;;;;;11.56;100.00;99506.94;6324506;22;45356;-86
2022/11/04 03:08:51;;;;;;;;;1.00;1.00;;;;;11.61;100.00;99489.16;6349638;22;45265;-87
2022/11/04 03:11:23;;;;;;;;;1.00;1.00;;;;;11.73;100.00;99501.44;6322837;22;47792;-87
2022/11/04 03:14:18;;;;;;;;;1.67;1.00;;;;;11.56;100.00;99458.16;6353295;22;44847;-86
2022/11/04 03:16:56;;;;;;;;;1.67;1.00;;;;;11.76;100.00;99484.56;6352704;22;45397;-87
2022/11/04 03:19:40;;;;;;;;;2.00;1.00;;;;;11.73;100.00;99480.13;6352181;22;44780;-86
2022/11/04 03:22:16;;;;;;;;;0.00;0.00;;;;;11.72;100.00;99483.72;6322362;22;46660;-87
2022/11/04 03:24:45;;;;;;;;;1.67;0.67;;;;;11.72;100.00;99473.06;6350107;22;45410;-87
2022/11/04 03:27:32;;;;;;;;;1.67;1.33;;;;;11.73;100.00;99481.91;6347307;22;45590;-87
2022/11/04 03:30:03;;;;;;;;;0.67;0.67;;;;;11.70;100.00;99474.84;6347796;22;45261;-87
2022/11/04 03:32:44;;;;;;;;;0.00;0.00;;;;;11.57;100.00;99454.56;6348749;22;46100;-86
2022/11/04 03:35:13;;;;;;;;;2.00;1.00;;;;;11.69;100.00;99475.75;6348858;22;44736;-87
2022/11/04 03:37:38;;;;;;;;;1.00;1.00;;;;;11.64;100.00;99466.06;6319986;22;45304;-87
2022/11/04 03:40:05;;;;;;;;;1.00;1.00;;;;;11.66;100.00;99470.47;6348745;22;44776;-86
2022/11/04 03:42:38;;;;;;;;;1.00;1.00;;;;;11.64;100.00;99463.41;6297926;22;47773;-86
2022/11/04 03:45:08;;;;;;;;;0.00;0.00;;;;;11.39;100.00;99429.94;6323748;22;45343;-86
2022/11/04 03:47:34;;;;;;;;;1.67;0.00;;;;;11.64;100.00;99466.94;6350950;22;45541;-87
2022/11/04 03:50:12;;;;;;;;;0.67;0.67;;;;;11.48;100.00;99433.38;6347120;22;45473;-86
2022/11/04 03:52:38;;;;;;;;;0.00;0.00;;;;;11.60;100.00;99446.56;6350032;22;48679;-86
2022/11/04 03:55:07;;;;;;;;;1.00;1.00;;;;;11.54;100.00;99434.19;6349140;22;45570;-86
2022/11/04 03:57:50;;;;;;;;;1.33;0.00;;;;;11.66;100.00;99466.94;6322532;22;45349;-87
2022/11/04 04:00:23;;;;;;;;;2.00;0.00;;;;;11.64;100.00;99471.38;6324063;22;45352;-86
2022/11/04 04:03:10;;;;;;;;;1.00;1.00;;;;;11.60;100.00;99476.72;6351464;22;45303;-87
2022/11/04 04:06:15;;;;;;;;;1.00;1.00;;;;;11.59;100.00;99479.41;6324426;22;45311;-86
2022/11/04 04:09:04;;;;;;;;;2.00;1.00;;;;;11.54;100.00;99465.28;6352394;22;45421;-86
2022/11/04 04:11:47;;;;;;;;;0.00;0.00;;;;;11.53;100.00;99474.13;6354362;22;45342;-87
2022/11/04 04:14:40;;;;;;;;;0.33;0.00;;;;;11.52;100.00;99475.94;6324559;22;47500;-86
2022/11/04 04:17:33;;;;;;;;;1.00;1.00;;;;;11.49;100.00;99475.97;6351864;22;45669;-87
2022/11/04 04:29:02;;;;;;;;;2.00;2.00;;;;;11.33;100.00;99472.56;6353371;22;45331;-87
2022/11/04 04:31:48;;;;;;;;;1.00;0.33;;;;;11.41;100.00;99486.69;6353081;22;45324;-87
2022/11/04 04:34:28;;;;;;;;;1.00;0.00;;;;;11.33;100.00;99477.00;6324745;22;45236;-87
2022/11/04 04:37:02;;;;;;;;;1.25;1.00;;;;;11.40;100.00;99487.56;6299311;22;47956;-86
2022/11/04 04:45:31;;;;;;;;;2.67;1.00;;;;;11.30;100.00;99482.38;6348599;22;45247;-86
2022/11/04 04:47:57;;;;;;;;;1.00;0.00;;;;;11.38;100.00;99497.34;6319565;22;47403;-86
2022/11/04 04:50:27;;;;;;;;;0.00;0.00;;;;;11.39;100.00;99495.56;6321422;22;44758;-86
2022/11/04 04:52:55;;;;;;;;;1.00;1.00;;;;;11.35;100.00;99494.75;6320103;22;45372;-86
2022/11/04 04:55:21;;;;;;;;;1.00;1.00;;;;;11.32;100.00;99496.53;6349136;22;45352;-86
2022/11/04 04:57:47;;;;;;;;;1.00;1.00;;;;;11.33;100.00;99500.94;6351740;22;45387;-87
2022/11/04 05:00:18;;;;;;;;;0.33;0.33;;;;;11.29;100.00;99497.47;6325127;22;45407;-86
2022/11/04 05:02:44;;;;;;;;;2.00;0.67;;;;;11.30;100.00;99495.66;6325554;22;45499;-87
2022/11/04 05:05:12;;;;;;;;;1.00;1.00;;;;;11.31;100.00;99494.75;6325037;22;45574;-86
2022/11/04 05:07:38;;;;;;;;;0.00;0.00;;;;;11.29;100.00;99493.88;6351532;22;47268;-88
2022/11/04 05:10:04;;;;;;;;;0.00;0.00;;;;;11.30;100.00;99498.34;6351289;22;45287;-86
2022/11/04 05:15:24;;;;;;;;;0.33;0.33;;;;;11.30;100.00;99503.66;6354084;22;45149;-87
2022/11/04 05:18:11;;;;;;;;;1.00;0.00;;;;;11.29;100.00;99493.88;6350293;22;47224;-87
2022/11/04 05:20:43;;;;;;;;;1.33;1.33;;;;;11.34;100.00;99500.06;6323696;22;45339;-86
2022/11/04 05:23:10;;;;;;;;;0.67;0.00;;;;;11.27;100.00;99487.69;6323281;22;45238;-86
2022/11/04 05:25:40;;;;;;;;;0.00;0.00;;;;;11.27;100.00;99496.59;6352592;22;45483;-87
2022/11/04 05:28:07;;;;;;;;;1.00;1.00;;;;;11.26;100.00;99502.78;6352243;22;46870;-86
2022/11/04 05:30:37;;;;;;;;;1.00;1.00;;;;;11.21;100.00;99499.31;6351215;22;45378;-86
2022/11/04 05:33:02;;;;;;;;;0.33;0.33;;;;;11.16;100.00;99501.09;6324656;22;44717;-87
2022/11/04 05:35:33;;;;;;;;;2.00;0.00;;;;;11.21;100.00;99505.50;6324999;22;45163;-87
2022/11/04 05:38:04;;;;;;;;;0.00;0.00;;;;;11.23;100.00;99507.25;6299460;22;45451;-86
2022/11/04 05:40:32;;;;;;;;;0.00;0.00;;;;;11.12;100.00;99497.56;6351664;22;45335;-86
2022/11/04 05:42:59;;;;;;;;;0.00;0.00;;;;;11.22;100.00;99522.34;6353204;22;45372;-87
2022/11/04 05:45:31;;;;;;;;;2.00;2.00;;;;;11.18;100.00;99512.63;6324426;22;45576;-87
2022/11/04 05:48:02;;;;;;;;;2.00;0.67;;;;;11.25;100.00;99517.00;6324114;22;45114;-85
2022/11/04 05:50:33;;;;;;;;;1.00;1.00;;;;;11.22;100.00;99522.34;6352221;22;45384;-87
2022/11/04 05:52:59;;;;;;;;;1.00;1.00;;;;;11.21;100.00;99526.78;6349644;22;45293;-86
2022/11/04 05:55:28;;;;;;;;;2.00;0.00;;;;;11.21;100.00;99533.91;6324704;22;45202;-86
2022/11/04 05:57:56;;;;;;;;;1.00;1.00;;;;;11.19;100.00;99517.94;6350695;22;46669;-87
2022/11/04 06:00:29;;;;;;;;;0.00;0.00;;;;;11.24;100.00;99525.88;6323041;22;45474;-87
2022/11/04 06:02:58;;;;;;;;;5.00;1.00;;;;;11.28;100.00;99535.59;6350328;22;44815;-87
2022/11/04 06:05:30;;;;;;;;;2.67;2.67;;;;;11.28;100.00;99543.59;6353229;22;45292;-87
2022/11/04 06:08:07;;;;;;;;;2.33;2.33;;;;;11.26;100.00;99541.84;6355718;22;45189;-87
2022/11/04 06:10:33;;;;;;;;;3.00;1.00;;;;;11.17;100.00;99527.72;6354155;22;45544;-86
2022/11/04 06:13:00;;;;;;;;;1.33;1.33;;;;;11.19;100.00;99533.03;6303640;22;44676;-86
2022/11/04 06:15:28;;;;;;;;;3.00;1.00;;;;;11.18;100.00;99529.47;6357745;22;45269;-86
2022/11/04 06:17:54;;;;;;;;;2.33;1.33;;;;;11.29;100.00;99544.47;6344640;22;45533;-86
2022/11/04 06:20:19;;;;;;;;;1.67;0.67;;;;;11.31;100.00;99554.22;6326116;22;45389;-86
2022/11/04 06:22:45;;;;;;;;;0.00;0.00;;;;;11.42;100.00;99564.78;6324961;22;45368;-87
2022/11/04 06:25:10;;;;;;;;;2.00;2.00;;;;;11.48;100.00;99563.84;6328756;22;45322;-87
2022/11/04 06:27:36;;;;;;;;;3.00;1.67;;;;;11.48;100.00;99566.50;6332281;22;45234;-86
2022/11/04 06:30:02;;;;;;;;;1.00;1.00;;;;;11.39;100.00;99549.72;6361408;22;44796;-86
2022/11/04 06:32:27;;;;;;;;;2.00;0.67;;;;;11.54;100.00;99567.31;6361855;22;45313;-86
2022/11/04 06:34:53;;;;;;;;;1.67;1.67;;;;;11.54;100.00;99577.09;6360890;22;44754;-86
2022/11/04 06:37:22;;;;;;;;;0.00;0.00;;;;;11.51;100.00;99577.09;6334858;22;45268;-87
2022/11/04 06:39:47;;;;;;;;;1.00;1.00;;;;;11.47;100.00;99572.72;6363329;22;44773;-86
2022/11/04 06:42:13;;;;;;;;;3.00;1.33;;;;;11.45;100.00;99571.84;6333693;22;44804;-86
2022/11/04 06:44:39;;;;;;;;;1.00;1.00;;;;;11.48;100.00;99580.69;6363027;22;44803;-88
2022/11/04 06:47:07;;;;;;;;;0.00;0.00;;;;;11.45;100.00;99563.84;6308674;22;46600;-86
2022/11/04 06:49:33;;;;;;;;;1.33;1.33;;;;;11.51;100.00;99569.13;6362711;22;45474;-86
2022/11/04 06:52:01;;;;;;;;;1.00;0.00;;;;;11.53;100.00;99580.66;6331129;22;45313;-87
2022/11/04 06:54:28;;;;;;;;;0.00;0.00;;;;;11.55;100.00;99589.50;6356691;22;45315;-86
2022/11/04 06:56:56;;;;;;;;;3.00;0.33;;;;;11.45;100.00;99571.84;6329470;22;45436;-86
2022/11/04 06:59:24;;;;;;;;;1.00;1.00;;;;;11.50;100.00;99588.69;6356890;22;45387;-86
2022/11/04 07:02:02;;;;;;;;;3.33;3.00;;;;;11.52;100.00;99586.88;6331010;22;44697;-86
2022/11/04 07:04:28;;;;;;;;;3.00;1.33;;;;;11.51;100.00;99588.66;6356967;22;45636;-86
2022/11/04 07:06:57;;;;;;;;;0.67;0.67;;;;;11.48;100.00;99590.47;6327693;22;47221;-86
2022/11/04 07:09:26;;;;;;;;;1.67;1.67;;;;;11.48;100.00;99598.44;6352934;22;45438;-87
2022/11/04 07:11:52;;;;;;;;;2.00;1.00;;;;;11.52;100.00;99598.41;6327143;22;45323;-87
2022/11/04 07:14:18;;;;;;;;;1.33;1.33;;;;;11.55;100.00;99605.47;6328227;22;45649;-85
2022/11/04 07:16:48;;;;;;;;;1.00;1.00;;;;;11.47;100.00;99592.22;6356652;22;45196;-86
2022/11/04 07:19:17;;;;;;;;;2.00;2.00;;;;;11.40;100.00;99583.41;6356582;22;45316;-85
2022/11/04 07:27:25;;;;;;;;;1.00;0.00;;;;;11.70;100.00;99620.47;6346888;22;45855;-87
2022/11/04 07:29:56;;;;;;;;;1.50;1.00;;;;;11.71;100.00;99636.41;6355720;22;45295;-87
2022/11/04 07:32:22;;;;;;;;;0.67;0.67;;;;;11.49;100.00;99603.78;6326159;22;45351;-88
2022/11/04 07:34:51;;;;;;;;;3.33;2.00;;;;;11.72;100.00;99629.31;6328035;22;45247;-87
2022/11/04 07:37:26;;;;;;;;;2.00;2.00;;;;;11.88;100.00;99656.72;6302794;22;46369;-86
2022/11/04 07:40:16;;;;;;;;;0.00;0.00;;;;;11.88;100.00;99646.94;6353515;22;45085;-86
2022/11/04 07:43:01;;;;;;;;;2.67;1.00;;;;;11.95;100.00;99655.78;6329471;22;45410;-87
2022/11/04 07:46:13;;;;;;;;;3.33;2.00;;;;;12.02;100.00;99662.84;6328065;22;45321;-88
2022/11/04 07:48:42;;;;;;;;;0.67;0.00;;;;;11.82;100.00;99623.91;6196726;23;46739;-88
2022/11/04 07:51:15;;;;;;;;;0.00;0.00;;;;;11.94;100.00;99644.25;6172774;23;45394;-88
2022/11/04 07:53:46;;;;;;;;;1.00;1.00;;;;;12.01;100.00;99661.06;6171410;23;45262;-88
2022/11/04 07:56:17;;;;;;;;;2.00;2.00;;;;;12.05;100.00;99664.59;6198338;23;45255;-88
2022/11/04 07:59:12;;;;;;;;;6.00;4.33;;;;;12.18;100.00;99682.25;6196038;23;45034;-87
2022/11/04 08:05:23;;;;;;;;;1.00;1.00;;;;;12.06;100.00;99669.00;6198957;23;45488;-86
2022/11/04 08:07:48;;;;;;;;;1.00;1.00;;;;;12.15;100.00;99683.13;6192696;23;45542;-87
2022/11/04 08:10:46;;;;;;;;;2.00;2.00;;;;;12.04;100.00;99669.03;6189638;22;45394;-86
2022/11/04 08:13:51;;;;;;;;;2.33;1.00;;;;;12.16;100.00;99684.03;6172793;23;44772;-86
2022/11/04 08:16:41;;;;;;;;;2.00;1.00;;;;;12.04;100.00;99669.03;6174553;23;44962;-87
2022/11/04 08:19:16;;;;;;;;;2.00;0.67;;;;;12.09;100.00;99668.97;6170496;23;45232;-87
2022/11/04 08:22:18;;;;;;;;;1.33;1.00;;;;;12.41;100.00;99719.31;6173770;23;46751;-87
2022/11/04 08:25:25;;;;;;;;;2.00;0.67;;;;;12.28;100.00;99688.34;6313190;22;44791;-87
2022/11/04 09:40:50;;;;;;;;;2.00;2.00;;;;;12.45;100.00;99845.53;6298986;22;44935;-82
2022/11/04 09:50:21;;;;;;;;;0.00;0.00;;;;;12.08;100.00;99835.09;6304005;22;44754;-84
2022/11/04 09:53:20;;;;;;;;;5.00;5.00;;;;;11.95;100.00;99820.97;6302566;22;46687;-83
2022/11/04 09:56:30;;;;;;;;;;;;;;;;;;;;;
2022/11/04 09:59:49;;;;;;;;;;;;;;;;;;;;;
2022/11/04 10:02:58;;;;;;;;;2.33;1.00;;;;;12.21;100.00;99893.66;6174504;23;64852;-83
2022/11/04 10:53:46;;;;;;;;;2.50;2.25;;;;;13.17;100.00;99967.66;6105493;23;45326;-81
2022/11/04 10:56:53;;;;;;;;;1.00;1.00;;;;;13.70;100.00;100011.69;6167251;23;44901;-81
2022/11/04 11:00:10;;;;;;;;;0.00;0.00;;;;;13.89;100.00;100008.81;6166279;23;45445;-81
2022/11/04 11:02:36;;;;;;;;;1.00;1.00;;;;;13.97;100.00;100013.16;6151209;23;44809;-84
2022/11/04 11:05:35;;;;;;;;;;;;;;;;;;;;;
2022/11/04 11:08:40;;;;;;;;;;;;;;;;;;;;;
2022/11/04 11:11:51;;;;;;;;;0.00;0.00;;;;;13.92;100.00;100008.78;6101164;23;68154;-83
2022/11/04 11:17:41;;;;;;;;;0.75;0.75;;;;;13.82;100.00;100012.47;6139628;23;45737;-86
2022/11/04 11:20:21;;;;;;;;;1.67;1.67;;;;;14.04;100.00;100034.47;6140493;23;45384;-82
2022/11/04 11:23:01;;;;;;;;;2.00;2.00;;;;;14.08;100.00;100039.78;6117042;23;45390;-80
2022/11/04 11:25:51;;;;;;;;;0.50;0.50;;;;;13.86;100.00;100012.41;6140092;23;45353;-82
2022/11/04 11:28:44;;;;;;;;;2.00;2.00;;;;;13.84;100.00;100040.94;6114168;23;45762;-82
2022/11/04 11:31:35;;;;;;;;;0.00;0.00;;;;;13.54;100.00;99994.03;6110490;23;46305;-81
2022/11/04 11:34:34;;;;;;;;;1.00;1.00;;;;;13.62;100.00;100042.94;6087280;23;45290;-82
2022/11/04 11:37:17;;;;;;;;;0.00;0.00;;;;;13.59;100.00;100045.63;6086920;23;44806;-80
2022/11/04 11:39:52;;;;;;;;;1.00;1.00;;;;;13.62;100.00;100058.97;6111508;23;45393;-81
2022/11/04 11:43:27;;;;;;;;;;;;;;;;;;;;;
2022/11/04 11:45:59;;;;;;;;;0.75;0.75;;;;;13.68;100.00;100080.28;6106856;23;45629;-82
2022/11/04 11:48:43;;;;;;;;;0.00;0.00;;;;;13.75;100.00;100081.09;6139899;23;45042;-83
2022/11/04 11:51:23;;;;;;;;;0.50;0.50;;;;;13.68;100.00;100064.25;6200572;23;46685;-83
2022/11/04 11:54:36;;;;;;;;;0.67;0.67;;;;;13.76;100.00;100086.44;6181626;22;45303;-83
2022/11/04 11:57:36;;;;;;;;;2.00;1.33;;;;;13.61;100.00;100051.84;6231248;22;45549;-83
2022/11/04 12:00:11;;;;;;;;;1.00;1.00;;;;;13.96;100.00;100102.28;6233329;22;44765;-82
2022/11/04 12:02:49;;;;;;;;;0.50;0.00;;;;;14.04;99.48;100115.59;6227240;22;45327;-82
2022/11/04 12:06:01;;;;;;;;;0.00;0.00;;;;;14.09;100.00;100113.72;6232956;22;45377;-81
2022/11/04 12:09:17;;;;;;;;;3.00;1.00;;;;;14.13;100.00;100115.47;6234712;22;44765;-82
2022/11/04 12:12:43;;;;;;;;;2.67;1.00;;;;;14.00;100.00;100097.81;6212208;22;45355;-81
2022/11/04 12:15:17;;;;;;;;;0.75;0.25;;;;;14.03;100.00;100129.84;6232277;22;45695;-82
2022/11/04 12:17:52;;;;;;;;;3.33;2.00;;;;;14.07;100.00;100136.94;6226849;22;45460;-83
2022/11/04 12:21:04;;;;;;;;;;;;;;;;;;;;;
2022/11/04 12:41:40;;;;;;;;;;;;;;;;;;;;;
2022/11/04 12:44:40;;;;;;;;;2.00;2.00;;;;;14.46;100.00;100209.66;6293985;22;68072;-84
2022/11/04 12:48:10;;;;;;;;;2.33;2.00;;;;;14.36;100.00;100208.88;6269229;22;45064;-82
2022/11/04 12:51:14;;;;;;;;;2.00;2.00;;;;;14.19;99.90;100217.03;6172445;23;45623;-83
2022/11/04 12:54:14;;;;;;;;;3.67;2.00;;;;;14.20;100.00;100220.63;6169297;23;45404;-82
2022/11/04 12:56:46;;;;;;;;;2.00;2.00;;;;;13.98;100.00;100199.41;6137439;23;44858;-83
2022/11/04 13:00:10;;;;;;;;;3.00;3.00;;;;;14.03;100.00;100238.59;6140484;23;45025;-83
2022/11/04 13:03:20;;;;;;;;;;;;;;;;;;;;;
2022/11/04 13:06:06;;;;;;;;;1.00;1.00;;;;;13.94;100.00;100248.44;6111363;23;71987;-82
2022/11/04 13:08:55;;;;;;;;;0.00;0.00;;;;;13.82;100.00;100236.97;6086389;23;45385;-82
2022/11/04 13:11:52;;;;;;;;;1.00;1.00;;;;;13.65;100.00;100229.94;6107774;23;45508;-80
2022/11/04 13:17:25;;;;;;;;;3.00;3.00;;;;;13.47;100.00;100278.13;6106172;23;45338;-80
2022/11/04 13:20:24;;;;;;;;;3.67;2.33;;;;;13.46;100.00;100281.72;6080922;23;44824;-81
2022/11/04 13:22:59;;;;;;;;;2.67;2.67;;;;;13.42;100.00;100258.59;6078448;23;45395;-79
2022/11/04 13:25:42;;;;;;;;;2.00;2.00;;;;;13.52;100.00;100276.34;6163860;23;47208;-80
2022/11/04 13:28:21;;;;;;;;;2.33;1.00;;;;;13.57;100.00;100298.56;6200833;22;45659;-80
2022/11/04 13:31:23;;;;;;;;;1.00;1.00;;;;;13.50;100.00;100288.81;6221793;22;44767;-83
2022/11/04 13:34:36;;;;;;;;;3.00;3.00;;;;;13.68;100.00;100304.75;6229012;22;45496;-80
2022/11/04 13:37:20;;;;;;;;;2.67;2.67;;;;;13.60;100.00;100317.28;6265825;22;47050;-83
2022/11/04 13:40:19;;;;;;;;;5.00;4.00;;;;;13.56;100.00;100323.53;6267401;22;45276;-83
2022/11/04 13:46:27;;;;;;;;;;;;;;;;;;;;;
2022/11/04 13:49:05;;;;;;;;;2.33;1.00;;;;;13.36;100.00;100312.94;6255059;22;73333;-82
2022/11/04 13:52:08;;;;;;;;;1.67;1.67;;;;;13.17;100.00;100301.41;6262468;22;45364;-82
2022/11/04 13:55:06;;;;;;;;;1.33;1.33;;;;;13.28;100.00;100328.94;6264255;22;45356;-83
2022/11/04 14:04:30;;;;;;;;;1.00;1.00;;;;;13.43;100.00;100369.88;6266054;22;45246;-82
2022/11/04 14:07:59;;;;;;;;;2.00;2.00;;;;;13.46;100.00;100386.78;6236400;22;44808;-82
2022/11/04 14:10:51;;;;;;;;;3.00;3.00;;;;;13.48;100.00;100384.13;6203689;22;45316;-82
2022/11/04 14:14:02;;;;;;;;;3.00;3.00;;;;;13.19;100.00;100339.66;6234796;22;46918;-82
2022/11/04 14:16:50;;;;;;;;;5.00;3.00;;;;;13.38;100.00;100405.50;6263091;22;44974;-82
2022/11/04 14:20:00;;;;;;;;;2.00;2.00;;;;;13.34;100.00;100402.84;6262231;22;45282;-83
2022/11/04 14:23:00;;;;;;;;;2.00;2.00;;;;;13.26;100.00;100405.50;6263272;22;45560;-84
2022/11/04 14:29:06;;;;;;;;;5.00;3.67;;;;;13.10;100.00;100395.75;6264040;22;45370;-84
2022/11/04 14:31:59;;;;;;;;;3.00;3.00;;;;;13.24;100.00;100434.00;6237463;22;44880;-84
2022/11/04 14:34:59;;;;;;;;;2.67;2.67;;;;;13.26;100.00;100432.22;6246762;22;45262;-85
2022/11/04 14:48:38;;;;;;;;;1.33;1.33;;;;;13.25;100.00;100419.78;6293976;22;45002;-84
2022/11/04 14:51:39;;;;;;;;;3.67;3.33;;;;;13.32;100.00;100445.59;6291764;22;46226;-85
2022/11/04 14:57:51;;;;;;;;;2.00;2.00;;;;;13.41;100.00;100471.38;6298869;22;44673;-85
2022/11/04 15:01:00;;;;;;;;;1.00;1.00;;;;;13.33;100.00;100490.13;6295194;22;45198;-85
2022/11/04 15:04:01;;;;;;;;;2.00;1.67;;;;;13.25;100.00;100485.63;6263750;22;46683;-85
2022/11/04 15:13:20;;;;;;;;;2.00;2.00;;;;;13.21;100.00;100485.63;6295449;22;44905;-84
2022/11/04 15:16:10;;;;;;;;;1.00;1.00;;;;;13.43;100.00;100522.13;6296590;22;47463;-83
2022/11/04 15:18:51;;;;;;;;;2.33;2.00;;;;;13.24;100.00;100484.75;6261681;22;45338;-83
2022/11/04 15:21:36;;;;;;;;;1.33;0.67;;;;;13.49;100.00;100530.16;6299053;22;45269;-83
2022/11/04 15:24:31;;;;;;;;;0.50;0.50;;;;;13.46;100.00;100523.03;6267256;22;45547;-81
2022/11/04 15:27:18;;;;;;;;;2.00;2.00;;;;;13.51;100.00;100525.69;6293739;22;45175;-84
2022/11/04 15:30:32;;;;;;;;;0.00;0.00;;;;;13.47;99.34;100546.19;6266313;22;45432;-83
2022/11/04 15:43:02;;;;;;;;;;;;;;;;;;;;;
2022/11/04 15:45:54;;;;;;;;;1.00;1.00;;;;;12.92;98.90;100500.75;6167852;23;68068;-82
2022/11/04 15:48:33;;;;;;;;;1.00;1.00;;;;;13.02;97.97;100540.81;6133572;23;45417;-83
2022/11/04 15:51:22;;;;;;;;;0.33;0.33;;;;;13.03;100.00;100533.72;6165919;23;45483;-82
2022/11/04 15:54:17;;;;;;;;;1.00;1.00;;;;;12.90;100.00;100510.53;6228867;22;45901;-82
2022/11/04 15:56:54;;;;;;;;;1.00;1.00;;;;;12.94;100.00;100541.69;6234283;22;44851;-85
2022/11/04 15:59:33;;;;;;;;;1.00;1.00;;;;;12.90;100.00;100543.47;6234130;22;45496;-84
2022/11/04 16:02:22;;;;;;;;;0.00;0.00;;;;;12.88;100.00;100549.69;6208429;22;46690;-84
2022/11/04 16:05:09;;;;;;;;;3.67;3.67;;;;;12.84;100.00;100575.47;6231050;22;45258;-83
2022/11/04 16:07:46;;;;;;;;;1.67;1.00;;;;;12.72;100.00;100554.09;6236841;22;44764;-84
2022/11/04 16:10:31;;;;;;;;;1.00;1.00;;;;;12.70;100.00;100575.44;6238880;22;44858;-84
2022/11/04 16:13:28;;;;;;;;;1.33;1.00;;;;;12.61;100.00;100560.31;6234005;22;47988;-82
2022/11/04 16:15:57;;;;;;;;;1.00;1.00;;;;;12.54;100.00;100571.88;6230890;22;45805;-83
2022/11/04 16:18:43;;;;;;;;;2.00;1.00;;;;;12.44;100.00;100579.81;6257508;22;45283;-83
2022/11/04 16:21:29;;;;;;;;;2.00;2.00;;;;;12.41;100.00;100607.38;6233111;22;45411;-83
2022/11/04 16:24:34;;;;;;;;;1.33;1.33;;;;;12.32;100.00;100618.91;6259734;22;45614;-84
2022/11/04 16:27:04;;;;;;;;;1.00;0.00;;;;;12.29;100.00;100633.97;6231988;22;45834;-84
2022/11/04 16:29:36;;;;;;;;;1.00;1.00;;;;;12.09;100.00;100632.06;6234929;22;45049;-83
2022/11/04 16:32:16;;;;;;;;;2.00;2.00;;;;;12.16;100.00;100649.91;6291346;22;44826;-83
2022/11/04 16:34:51;;;;;;;;;1.00;1.00;;;;;12.14;100.00;100650.75;6293053;22;45361;-84
2022/11/04 16:37:18;;;;;;;;;3.00;2.00;;;;;12.06;100.00;100641.81;6290534;22;45790;-83
2022/11/04 16:39:44;;;;;;;;;2.00;2.00;;;;;12.15;100.00;100657.88;6291936;22;45337;-82
2022/11/04 16:43:05;;;;;;;;;2.00;2.00;;;;;12.12;100.00;100669.44;6290078;22;45327;-84
2022/11/04 16:45:34;;;;;;;;;2.00;2.00;;;;;12.11;100.00;100659.63;6289820;22;46380;-83
2022/11/04 16:48:00;;;;;;;;;2.33;2.00;;;;;12.07;100.00;100665.81;6263809;22;45064;-84